sensor_id;sensor_type;location;lat;lon;timestamp;temperature;humidity
25568;DHT22;13455;51.480;7.594;2024-02-21T00:00:51;8.70;99.90
25568;DHT22;13455;51.480;7.594;2024-02-21T00:03:16;8.60;99.90
25568;DHT22;13455;51.480;7.594;2024-02-21T00:05:42;8.60;99.90
25568;DHT22;13455;51.480;7.594;2024-02-21T00:08:08;8.60;99.90
25568;DHT22;13455;51.480;7.594;2024-02-21T00:10:34;8.60;99.90
25568;DHT22;13455;51.480;7.594;2024-02-21T00:13:00;8.60;99.90
25568;DHT22;13455;51.480;7.594;2024-02-21T00:15:26;8.60;99.90
25568;DHT22;13455;51.480;7.594;2024-02-21T00:17:51;8.60;99.90
25568;DHT22;13455;51.480;7.594;2024-02-21T00:20:17;8.50;99.90
25568;DHT22;13455;51.480;7.594;2024-02-21T00:22:43;8.60;99.90
25568;DHT22;13455;51.480;7.594;2024-02-21T00:25:09;8.50;99.90
25568;DHT22;13455;51.480;7.594;2024-02-21T00:27:35;8.60;99.90
25568;DHT22;13455;51.480;7.594;2024-02-21T00:30:01;8.60;99.90
25568;DHT22;13455;51.480;7.594;2024-02-21T00:32:26;8.60;99.90
25568;DHT22;13455;51.480;7.594;2024-02-21T00:34:52;8.60;99.90
25568;DHT22;13455;51.480;7.594;2024-02-21T00:37:17;8.60;99.90
25568;DHT22;13455;51.480;7.594;2024-02-21T00:39:43;8.60;99.90
25568;DHT22;13455;51.480;7.594;2024-02-21T00:42:09;8.40;99.90
25568;DHT22;13455;51.480;7.594;2024-02-21T00:44:34;8.60;99.90
25568;DHT22;13455;51.480;7.594;2024-02-21T00:47:00;8.70;99.90
25568;DHT22;13455;51.480;7.594;2024-02-21T00:49:25;8.60;99.90
25568;DHT22;13455;51.480;7.594;2024-02-21T00:51:51;8.60;99.90
25568;DHT22;13455;51.480;7.594;2024-02-21T00:54:17;8.60;99.90
25568;DHT22;13455;51.480;7.594;2024-02-21T00:56:43;8.90;99.90
25568;DHT22;13455;51.480;7.594;2024-02-21T00:59:08;8.60;99.90
25568;DHT22;13455;51.480;7.594;2024-02-21T01:01:34;8.60;99.90
25568;DHT22;13455;51.480;7.594;2024-02-21T01:03:59;8.50;99.90
25568;DHT22;13455;51.480;7.594;2024-02-21T01:06:25;8.60;99.90
25568;DHT22;13455;51.480;7.594;2024-02-21T01:08:51;8.70;99.90
25568;DHT22;13455;51.480;7.594;2024-02-21T01:11:17;8.80;99.90
25568;DHT22;13455;51.480;7.594;2024-02-21T01:13:42;8.50;99.90
25568;DHT22;13455;51.480;7.594;2024-02-21T01:16:08;8.50;99.90
25568;DHT22;13455;51.480;7.594;2024-02-21T01:18:34;8.60;99.90
25568;DHT22;13455;51.480;7.594;2024-02-21T01:21:00;8.60;99.90
25568;DHT22;13455;51.480;7.594;2024-02-21T01:23:26;8.60;99.90
25568;DHT22;13455;51.480;7.594;2024-02-21T01:25:51;8.60;99.90
25568;DHT22;13455;51.480;7.594;2024-02-21T01:28:18;8.50;99.90
25568;DHT22;13455;51.480;7.594;2024-02-21T01:30:44;8.60;99.90
25568;DHT22;13455;51.480;7.594;2024-02-21T01:33:09;8.60;99.90
25568;DHT22;13455;51.480;7.594;2024-02-21T01:35:36;8.60;99.90
25568;DHT22;13455;51.480;7.594;2024-02-21T01:38:02;8.50;99.90
25568;DHT22;13455;51.480;7.594;2024-02-21T01:40:28;8.50;99.90
25568;DHT22;13455;51.480;7.594;2024-02-21T01:42:55;8.60;99.90
25568;DHT22;13455;51.480;7.594;2024-02-21T01:45:21;8.60;99.90
25568;DHT22;13455;51.480;7.594;2024-02-21T01:47:48;8.50;99.90
25568;DHT22;13455;51.480;7.594;2024-02-21T01:50:15;8.50;99.90
25568;DHT22;13455;51.480;7.594;2024-02-21T01:52:43;8.60;99.90
25568;DHT22;13455;51.480;7.594;2024-02-21T01:55:11;8.50;99.90
25568;DHT22;13455;51.480;7.594;2024-02-21T01:57:39;8.50;99.90
25568;DHT22;13455;51.480;7.594;2024-02-21T02:00:07;8.50;99.90
25568;DHT22;13455;51.480;7.594;2024-02-21T02:02:34;8.50;99.90
25568;DHT22;13455;51.480;7.594;2024-02-21T02:05:00;8.50;99.90
25568;DHT22;13455;51.480;7.594;2024-02-21T02:07:26;8.50;99.90
25568;DHT22;13455;51.480;7.594;2024-02-21T02:09:52;8.50;99.90
25568;DHT22;13455;51.480;7.594;2024-02-21T02:12:17;8.50;99.90
25568;DHT22;13455;51.480;7.594;2024-02-21T02:14:43;8.50;99.90
25568;DHT22;13455;51.480;7.594;2024-02-21T02:17:08;8.50;99.90
25568;DHT22;13455;51.480;7.594;2024-02-21T02:19:35;8.50;99.90
25568;DHT22;13455;51.480;7.594;2024-02-21T02:22:10;8.50;99.90
25568;DHT22;13455;51.480;7.594;2024-02-21T02:24:40;8.50;99.90
25568;DHT22;13455;51.480;7.594;2024-02-21T02:27:05;8.50;99.90
25568;DHT22;13455;51.480;7.594;2024-02-21T02:29:32;8.50;99.90
25568;DHT22;13455;51.480;7.594;2024-02-21T02:31:58;8.40;99.90
25568;DHT22;13455;51.480;7.594;2024-02-21T02:34:23;8.50;99.90
25568;DHT22;13455;51.480;7.594;2024-02-21T02:36:49;8.50;99.90
25568;DHT22;13455;51.480;7.594;2024-02-21T02:39:15;8.60;99.90
25568;DHT22;13455;51.480;7.594;2024-02-21T02:41:40;8.40;99.90
25568;DHT22;13455;51.480;7.594;2024-02-21T02:44:06;8.50;99.90
25568;DHT22;13455;51.480;7.594;2024-02-21T02:46:31;8.40;99.90
25568;DHT22;13455;51.480;7.594;2024-02-21T02:48:57;8.60;99.90
25568;DHT22;13455;51.480;7.594;2024-02-21T02:51:22;8.90;99.90
25568;DHT22;13455;51.480;7.594;2024-02-21T02:53:48;8.70;99.90
25568;DHT22;13455;51.480;7.594;2024-02-21T02:56:15;8.90;99.90
25568;DHT22;13455;51.480;7.594;2024-02-21T02:58:42;8.50;99.90
25568;DHT22;13455;51.480;7.594;2024-02-21T03:01:08;8.80;99.90
25568;DHT22;13455;51.480;7.594;2024-02-21T03:03:33;8.60;99.90
25568;DHT22;13455;51.480;7.594;2024-02-21T03:05:59;8.60;99.90
25568;DHT22;13455;51.480;7.594;2024-02-21T03:08:24;8.60;99.90
25568;DHT22;13455;51.480;7.594;2024-02-21T03:10:50;8.40;99.90
25568;DHT22;13455;51.480;7.594;2024-02-21T03:13:15;8.40;99.90
25568;DHT22;13455;51.480;7.594;2024-02-21T03:15:41;8.30;99.90
25568;DHT22;13455;51.480;7.594;2024-02-21T03:18:07;8.60;99.90
25568;DHT22;13455;51.480;7.594;2024-02-21T03:20:32;8.30;99.90
25568;DHT22;13455;51.480;7.594;2024-02-21T03:22:58;8.30;99.90
25568;DHT22;13455;51.480;7.594;2024-02-21T03:25:24;8.70;99.90
25568;DHT22;13455;51.480;7.594;2024-02-21T03:27:49;8.30;99.90
25568;DHT22;13455;51.480;7.594;2024-02-21T03:30:15;8.30;99.90
25568;DHT22;13455;51.480;7.594;2024-02-21T03:32:41;8.20;99.90
25568;DHT22;13455;51.480;7.594;2024-02-21T03:35:06;8.30;99.90
25568;DHT22;13455;51.480;7.594;2024-02-21T03:37:32;8.20;99.90
25568;DHT22;13455;51.480;7.594;2024-02-21T03:39:58;8.20;99.90
25568;DHT22;13455;51.480;7.594;2024-02-21T03:42:23;8.20;99.90
25568;DHT22;13455;51.480;7.594;2024-02-21T03:44:49;8.10;99.90
25568;DHT22;13455;51.480;7.594;2024-02-21T03:47:14;8.20;99.90
25568;DHT22;13455;51.480;7.594;2024-02-21T03:49:40;8.40;99.90
25568;DHT22;13455;51.480;7.594;2024-02-21T03:52:05;8.50;99.90
25568;DHT22;13455;51.480;7.594;2024-02-21T03:54:31;8.40;99.90
25568;DHT22;13455;51.480;7.594;2024-02-21T03:56:57;8.20;99.90
25568;DHT22;13455;51.480;7.594;2024-02-21T03:59:22;7.70;99.90
25568;DHT22;13455;51.480;7.594;2024-02-21T04:01:52;8.40;99.90
25568;DHT22;13455;51.480;7.594;2024-02-21T04:04:18;8.20;99.90
25568;DHT22;13455;51.480;7.594;2024-02-21T04:06:50;8.40;99.90
25568;DHT22;13455;51.480;7.594;2024-02-21T04:09:16;8.40;99.90
25568;DHT22;13455;51.480;7.594;2024-02-21T04:11:42;8.40;99.90
25568;DHT22;13455;51.480;7.594;2024-02-21T04:14:08;8.30;99.90
25568;DHT22;13455;51.480;7.594;2024-02-21T04:16:34;8.60;99.90
25568;DHT22;13455;51.480;7.594;2024-02-21T04:19:00;8.40;99.90
25568;DHT22;13455;51.480;7.594;2024-02-21T04:21:27;8.20;99.90
25568;DHT22;13455;51.480;7.594;2024-02-21T04:23:52;8.40;99.90
25568;DHT22;13455;51.480;7.594;2024-02-21T04:26:18;8.30;99.90
25568;DHT22;13455;51.480;7.594;2024-02-21T04:28:45;8.50;99.90
25568;DHT22;13455;51.480;7.594;2024-02-21T04:31:11;8.50;99.90
25568;DHT22;13455;51.480;7.594;2024-02-21T04:33:37;8.50;99.90
25568;DHT22;13455;51.480;7.594;2024-02-21T04:36:02;9.00;99.90
25568;DHT22;13455;51.480;7.594;2024-02-21T04:38:28;8.50;99.90
25568;DHT22;13455;51.480;7.594;2024-02-21T04:40:55;8.40;99.90
25568;DHT22;13455;51.480;7.594;2024-02-21T04:43:24;8.40;99.90
25568;DHT22;13455;51.480;7.594;2024-02-21T04:45:50;8.30;99.90
25568;DHT22;13455;51.480;7.594;2024-02-21T04:48:16;8.40;99.90
25568;DHT22;13455;51.480;7.594;2024-02-21T04:50:41;8.40;99.90
25568;DHT22;13455;51.480;7.594;2024-02-21T04:53:07;8.40;99.90
25568;DHT22;13455;51.480;7.594;2024-02-21T04:55:33;8.40;99.90
25568;DHT22;13455;51.480;7.594;2024-02-21T04:57:58;8.30;99.90
25568;DHT22;13455;51.480;7.594;2024-02-21T05:00:24;8.50;99.90
25568;DHT22;13455;51.480;7.594;2024-02-21T05:02:50;8.40;99.90
25568;DHT22;13455;51.480;7.594;2024-02-21T05:05:15;8.30;99.90
25568;DHT22;13455;51.480;7.594;2024-02-21T05:07:42;8.40;99.90
25568;DHT22;13455;51.480;7.594;2024-02-21T05:10:08;8.40;99.90
25568;DHT22;13455;51.480;7.594;2024-02-21T05:12:34;8.40;99.90
25568;DHT22;13455;51.480;7.594;2024-02-21T05:15:00;8.40;99.90
25568;DHT22;13455;51.480;7.594;2024-02-21T05:17:26;8.50;99.90
25568;DHT22;13455;51.480;7.594;2024-02-21T05:19:51;8.40;99.90
25568;DHT22;13455;51.480;7.594;2024-02-21T05:22:17;8.40;99.90
25568;DHT22;13455;51.480;7.594;2024-02-21T05:24:43;8.30;99.90
25568;DHT22;13455;51.480;7.594;2024-02-21T05:27:08;8.40;99.90
25568;DHT22;13455;51.480;7.594;2024-02-21T05:29:34;8.40;99.90
25568;DHT22;13455;51.480;7.594;2024-02-21T05:32:00;8.40;99.90
25568;DHT22;13455;51.480;7.594;2024-02-21T05:34:26;8.40;99.90
25568;DHT22;13455;51.480;7.594;2024-02-21T05:36:51;8.40;99.90
25568;DHT22;13455;51.480;7.594;2024-02-21T05:39:18;8.60;99.90
25568;DHT22;13455;51.480;7.594;2024-02-21T05:41:44;8.50;99.90
25568;DHT22;13455;51.480;7.594;2024-02-21T05:44:10;8.40;99.90
25568;DHT22;13455;51.480;7.594;2024-02-21T05:46:36;8.40;99.90
25568;DHT22;13455;51.480;7.594;2024-02-21T05:49:01;8.40;99.90
25568;DHT22;13455;51.480;7.594;2024-02-21T05:51:27;8.50;99.90
25568;DHT22;13455;51.480;7.594;2024-02-21T05:53:52;8.50;99.90
25568;DHT22;13455;51.480;7.594;2024-02-21T05:56:18;8.40;99.90
25568;DHT22;13455;51.480;7.594;2024-02-21T06:01:11;8.40;99.90
25568;DHT22;13455;51.480;7.594;2024-02-21T06:03:37;8.50;99.90
25568;DHT22;13455;51.480;7.594;2024-02-21T06:06:03;8.40;99.90
25568;DHT22;13455;51.480;7.594;2024-02-21T06:08:30;8.50;99.90
25568;DHT22;13455;51.480;7.594;2024-02-21T06:10:56;8.40;99.90
25568;DHT22;13455;51.480;7.594;2024-02-21T06:13:23;8.40;99.90
25568;DHT22;13455;51.480;7.594;2024-02-21T06:15:48;8.40;99.90
25568;DHT22;13455;51.480;7.594;2024-02-21T06:18:17;8.40;99.90
25568;DHT22;13455;51.480;7.594;2024-02-21T06:20:42;8.40;99.90
25568;DHT22;13455;51.480;7.594;2024-02-21T06:23:08;8.40;99.90
25568;DHT22;13455;51.480;7.594;2024-02-21T06:25:35;8.50;99.90
25568;DHT22;13455;51.480;7.594;2024-02-21T06:28:00;8.40;99.90
25568;DHT22;13455;51.480;7.594;2024-02-21T06:30:26;8.50;99.90
25568;DHT22;13455;51.480;7.594;2024-02-21T06:32:52;8.40;99.90
25568;DHT22;13455;51.480;7.594;2024-02-21T06:35:17;8.40;99.90
25568;DHT22;13455;51.480;7.594;2024-02-21T06:37:43;8.40;99.90
25568;DHT22;13455;51.480;7.594;2024-02-21T06:40:10;8.50;99.90
25568;DHT22;13455;51.480;7.594;2024-02-21T06:42:36;8.40;99.90
25568;DHT22;13455;51.480;7.594;2024-02-21T06:45:02;9.00;99.90
25568;DHT22;13455;51.480;7.594;2024-02-21T06:47:27;8.50;99.90
25568;DHT22;13455;51.480;7.594;2024-02-21T06:49:53;8.50;99.90
25568;DHT22;13455;51.480;7.594;2024-02-21T06:52:18;8.50;99.90
25568;DHT22;13455;51.480;7.594;2024-02-21T06:54:48;8.50;99.90
25568;DHT22;13455;51.480;7.594;2024-02-21T06:57:13;8.50;99.90
25568;DHT22;13455;51.480;7.594;2024-02-21T06:59:41;8.50;99.90
25568;DHT22;13455;51.480;7.594;2024-02-21T07:02:06;8.50;99.90
25568;DHT22;13455;51.480;7.594;2024-02-21T07:04:32;8.60;99.90
25568;DHT22;13455;51.480;7.594;2024-02-21T07:06:58;8.60;99.90
25568;DHT22;13455;51.480;7.594;2024-02-21T07:09:23;8.60;99.90
25568;DHT22;13455;51.480;7.594;2024-02-21T07:11:49;8.60;99.90
25568;DHT22;13455;51.480;7.594;2024-02-21T07:14:15;8.60;99.90
25568;DHT22;13455;51.480;7.594;2024-02-21T07:16:43;8.60;99.90
25568;DHT22;13455;51.480;7.594;2024-02-21T07:19:09;8.60;99.90
25568;DHT22;13455;51.480;7.594;2024-02-21T07:21:34;8.60;99.90
25568;DHT22;13455;51.480;7.594;2024-02-21T07:24:03;8.70;99.90
25568;DHT22;13455;51.480;7.594;2024-02-21T07:26:29;8.60;99.90
25568;DHT22;13455;51.480;7.594;2024-02-21T07:28:55;8.60;99.90
25568;DHT22;13455;51.480;7.594;2024-02-21T07:31:20;8.60;99.90
25568;DHT22;13455;51.480;7.594;2024-02-21T07:33:46;8.60;99.90
25568;DHT22;13455;51.480;7.594;2024-02-21T07:36:11;8.70;99.90
25568;DHT22;13455;51.480;7.594;2024-02-21T07:38:37;8.70;99.90
25568;DHT22;13455;51.480;7.594;2024-02-21T07:41:03;8.80;99.90
25568;DHT22;13455;51.480;7.594;2024-02-21T07:43:29;8.80;99.90
25568;DHT22;13455;51.480;7.594;2024-02-21T07:45:55;8.80;99.90
25568;DHT22;13455;51.480;7.594;2024-02-21T07:48:21;8.80;99.90
25568;DHT22;13455;51.480;7.594;2024-02-21T07:50:50;8.80;99.90
25568;DHT22;13455;51.480;7.594;2024-02-21T07:53:16;9.00;99.90
25568;DHT22;13455;51.480;7.594;2024-02-21T07:55:42;8.80;99.90
25568;DHT22;13455;51.480;7.594;2024-02-21T07:58:07;8.90;99.90
25568;DHT22;13455;51.480;7.594;2024-02-21T08:00:33;8.90;99.90
25568;DHT22;13455;51.480;7.594;2024-02-21T08:03:00;9.00;99.90
25568;DHT22;13455;51.480;7.594;2024-02-21T08:05:26;8.90;99.90
25568;DHT22;13455;51.480;7.594;2024-02-21T08:07:52;9.00;99.90
25568;DHT22;13455;51.480;7.594;2024-02-21T08:10:17;9.00;99.90
25568;DHT22;13455;51.480;7.594;2024-02-21T08:12:43;9.00;99.90
25568;DHT22;13455;51.480;7.594;2024-02-21T08:15:09;9.10;99.90
25568;DHT22;13455;51.480;7.594;2024-02-21T08:17:36;9.10;99.90
25568;DHT22;13455;51.480;7.594;2024-02-21T08:20:03;9.40;99.90
25568;DHT22;13455;51.480;7.594;2024-02-21T08:22:29;9.30;99.90
25568;DHT22;13455;51.480;7.594;2024-02-21T08:27:21;9.40;99.90
25568;DHT22;13455;51.480;7.594;2024-02-21T08:29:47;9.20;99.90
25568;DHT22;13455;51.480;7.594;2024-02-21T08:32:13;9.30;99.90
25568;DHT22;13455;51.480;7.594;2024-02-21T08:34:38;9.20;99.90
25568;DHT22;13455;51.480;7.594;2024-02-21T08:37:04;9.70;99.90
25568;DHT22;13455;51.480;7.594;2024-02-21T08:39:30;9.30;99.90
25568;DHT22;13455;51.480;7.594;2024-02-21T08:41:56;9.40;99.90
25568;DHT22;13455;51.480;7.594;2024-02-21T08:46:53;9.50;99.90
25568;DHT22;13455;51.480;7.594;2024-02-21T08:49:19;9.50;99.90
25568;DHT22;13455;51.480;7.594;2024-02-21T08:56:37;9.60;99.90
25568;DHT22;13455;51.480;7.594;2024-02-21T08:59:03;9.60;99.90
25568;DHT22;13455;51.480;7.594;2024-02-21T11:06:40;10.10;99.90
25568;DHT22;13455;51.480;7.594;2024-02-21T11:09:07;9.90;99.90
25568;DHT22;13455;51.480;7.594;2024-02-21T11:27:16;10.00;99.90
25568;DHT22;13455;51.480;7.594;2024-02-21T11:35:00;10.40;99.90
25568;DHT22;13455;51.480;7.594;2024-02-21T11:37:31;10.40;99.90
25568;DHT22;13455;51.480;7.594;2024-02-21T11:39:59;10.50;99.90
25568;DHT22;13455;51.480;7.594;2024-02-21T11:42:26;10.50;99.90
25568;DHT22;13455;51.480;7.594;2024-02-21T11:44:52;10.50;99.90
25568;DHT22;13455;51.480;7.594;2024-02-21T11:47:18;10.60;99.90
25568;DHT22;13455;51.480;7.594;2024-02-21T11:49:47;10.60;99.90
25568;DHT22;13455;51.480;7.594;2024-02-21T11:52:15;10.70;99.90
25568;DHT22;13455;51.480;7.594;2024-02-21T11:54:42;10.70;99.90
25568;DHT22;13455;51.480;7.594;2024-02-21T11:57:08;11.00;99.90
25568;DHT22;13455;51.480;7.594;2024-02-21T11:59:34;10.80;99.90
25568;DHT22;13455;51.480;7.594;2024-02-21T12:02:00;11.20;99.90
25568;DHT22;13455;51.480;7.594;2024-02-21T12:04:26;11.20;99.90
25568;DHT22;13455;51.480;7.594;2024-02-21T12:09:22;10.90;99.90
25568;DHT22;13455;51.480;7.594;2024-02-21T12:12:00;10.90;99.90
25568;DHT22;13455;51.480;7.594;2024-02-21T12:19:20;10.90;99.90
25568;DHT22;13455;51.480;7.594;2024-02-21T12:21:47;10.90;99.90
25568;DHT22;13455;51.480;7.594;2024-02-21T12:24:21;11.00;99.90
25568;DHT22;13455;51.480;7.594;2024-02-21T12:26:49;11.10;99.90
25568;DHT22;13455;51.480;7.594;2024-02-21T12:29:14;11.10;99.90
25568;DHT22;13455;51.480;7.594;2024-02-21T12:34:06;11.30;99.90
25568;DHT22;13455;51.480;7.594;2024-02-21T12:36:32;11.40;99.90
25568;DHT22;13455;51.480;7.594;2024-02-21T12:39:01;11.10;99.90
25568;DHT22;13455;51.480;7.594;2024-02-21T12:41:28;11.20;99.90
25568;DHT22;13455;51.480;7.594;2024-02-21T12:43:55;11.20;99.90
25568;DHT22;13455;51.480;7.594;2024-02-21T12:46:22;11.20;99.90
25568;DHT22;13455;51.480;7.594;2024-02-21T12:48:47;11.20;99.90
25568;DHT22;13455;51.480;7.594;2024-02-21T12:51:13;11.20;99.90
25568;DHT22;13455;51.480;7.594;2024-02-21T12:58:33;11.20;99.90
25568;DHT22;13455;51.480;7.594;2024-02-21T13:00:58;11.30;99.90
25568;DHT22;13455;51.480;7.594;2024-02-21T13:03:24;11.30;99.90
25568;DHT22;13455;51.480;7.594;2024-02-21T13:10:41;11.40;99.90
25568;DHT22;13455;51.480;7.594;2024-02-21T13:13:07;11.50;99.90
25568;DHT22;13455;51.480;7.594;2024-02-21T13:15:32;11.20;99.90
25568;DHT22;13455;51.480;7.594;2024-02-21T13:17:58;12.00;99.90
25568;DHT22;13455;51.480;7.594;2024-02-21T13:20:25;11.60;99.90
25568;DHT22;13455;51.480;7.594;2024-02-21T13:25:17;11.60;99.90
25568;DHT22;13455;51.480;7.594;2024-02-21T13:27:45;11.60;99.90
25568;DHT22;13455;51.480;7.594;2024-02-21T13:32:38;11.80;99.90
25568;DHT22;13455;51.480;7.594;2024-02-21T13:37:30;11.90;99.90
25568;DHT22;13455;51.480;7.594;2024-02-21T13:39:55;11.90;99.90
25568;DHT22;13455;51.480;7.594;2024-02-21T13:49:42;12.50;99.90
25568;DHT22;13455;51.480;7.594;2024-02-21T13:52:08;12.30;99.90
25568;DHT22;13455;51.480;7.594;2024-02-21T13:54:34;12.70;99.90
25568;DHT22;13455;51.480;7.594;2024-02-21T13:57:00;12.70;99.90
25568;DHT22;13455;51.480;7.594;2024-02-21T13:59:28;12.30;99.90
25568;DHT22;13455;51.480;7.594;2024-02-21T14:01:53;12.70;99.90
25568;DHT22;13455;51.480;7.594;2024-02-21T14:04:19;12.50;99.90
25568;DHT22;13455;51.480;7.594;2024-02-21T14:06:45;12.50;99.90
25568;DHT22;13455;51.480;7.594;2024-02-21T14:09:11;12.40;99.90
25568;DHT22;13455;51.480;7.594;2024-02-21T14:14:05;12.80;99.90
25568;DHT22;13455;51.480;7.594;2024-02-21T14:16:31;12.60;99.90
25568;DHT22;13455;51.480;7.594;2024-02-21T14:18:57;12.40;99.90
25568;DHT22;13455;51.480;7.594;2024-02-21T14:21:23;12.60;99.90
25568;DHT22;13455;51.480;7.594;2024-02-21T14:23:48;12.50;99.90
25568;DHT22;13455;51.480;7.594;2024-02-21T14:28:40;12.40;99.90
25568;DHT22;13455;51.480;7.594;2024-02-21T14:31:07;12.40;99.90
25568;DHT22;13455;51.480;7.594;2024-02-21T14:33:37;12.70;99.90
25568;DHT22;13455;51.480;7.594;2024-02-21T14:36:03;12.30;99.90
25568;DHT22;13455;51.480;7.594;2024-02-21T14:38:29;12.40;99.90
25568;DHT22;13455;51.480;7.594;2024-02-21T14:40:55;13.00;99.90
25568;DHT22;13455;51.480;7.594;2024-02-21T14:43:21;12.50;99.90
25568;DHT22;13455;51.480;7.594;2024-02-21T14:45:47;12.60;99.90
25568;DHT22;13455;51.480;7.594;2024-02-21T14:48:13;11.90;99.90
25568;DHT22;13455;51.480;7.594;2024-02-21T14:50:39;12.10;99.90
25568;DHT22;13455;51.480;7.594;2024-02-21T14:53:04;12.20;99.90
25568;DHT22;13455;51.480;7.594;2024-02-21T14:55:30;12.20;99.90
25568;DHT22;13455;51.480;7.594;2024-02-21T14:57:55;12.00;99.90
25568;DHT22;13455;51.480;7.594;2024-02-21T15:00:21;12.10;99.90
25568;DHT22;13455;51.480;7.594;2024-02-21T15:02:53;12.10;99.90
25568;DHT22;13455;51.480;7.594;2024-02-21T15:05:19;12.30;99.90
25568;DHT22;13455;51.480;7.594;2024-02-21T15:07:45;12.00;99.90
25568;DHT22;13455;51.480;7.594;2024-02-21T15:10:11;12.10;99.90
25568;DHT22;13455;51.480;7.594;2024-02-21T15:12:36;11.90;99.90
25568;DHT22;13455;51.480;7.594;2024-02-21T15:15:02;12.00;99.90
25568;DHT22;13455;51.480;7.594;2024-02-21T15:17:29;11.90;99.90
25568;DHT22;13455;51.480;7.594;2024-02-21T15:19:55;11.80;99.90
25568;DHT22;13455;51.480;7.594;2024-02-21T15:22:21;11.80;99.90
25568;DHT22;13455;51.480;7.594;2024-02-21T15:24:48;11.70;99.90
25568;DHT22;13455;51.480;7.594;2024-02-21T15:27:14;11.70;99.90
25568;DHT22;13455;51.480;7.594;2024-02-21T15:29:40;11.70;99.90
25568;DHT22;13455;51.480;7.594;2024-02-21T15:32:06;11.60;99.90
25568;DHT22;13455;51.480;7.594;2024-02-21T15:34:32;11.60;99.90
25568;DHT22;13455;51.480;7.594;2024-02-21T15:36:57;11.60;99.90
25568;DHT22;13455;51.480;7.594;2024-02-21T15:39:23;11.60;99.90
25568;DHT22;13455;51.480;7.594;2024-02-21T15:41:51;11.50;99.90
25568;DHT22;13455;51.480;7.594;2024-02-21T15:44:17;11.50;99.90
25568;DHT22;13455;51.480;7.594;2024-02-21T15:46:42;11.50;99.90
25568;DHT22;13455;51.480;7.594;2024-02-21T15:49:08;11.50;99.90
25568;DHT22;13455;51.480;7.594;2024-02-21T15:51:33;11.40;99.90
25568;DHT22;13455;51.480;7.594;2024-02-21T15:54:00;11.30;99.90
25568;DHT22;13455;51.480;7.594;2024-02-21T15:56:26;11.40;99.90
25568;DHT22;13455;51.480;7.594;2024-02-21T15:58:52;11.90;99.90
25568;DHT22;13455;51.480;7.594;2024-02-21T16:01:20;11.60;99.90
25568;DHT22;13455;51.480;7.594;2024-02-21T16:03:46;11.20;99.90
25568;DHT22;13455;51.480;7.594;2024-02-21T16:06:12;11.20;99.90
25568;DHT22;13455;51.480;7.594;2024-02-21T16:08:37;11.20;99.90
25568;DHT22;13455;51.480;7.594;2024-02-21T16:11:06;11.40;99.90
25568;DHT22;13455;51.480;7.594;2024-02-21T16:13:34;11.00;99.90
25568;DHT22;13455;51.480;7.594;2024-02-21T16:16:00;10.90;99.90
25568;DHT22;13455;51.480;7.594;2024-02-21T16:18:25;11.10;99.90
25568;DHT22;13455;51.480;7.594;2024-02-21T16:20:51;11.00;99.90
25568;DHT22;13455;51.480;7.594;2024-02-21T16:23:17;10.90;99.90
25568;DHT22;13455;51.480;7.594;2024-02-21T16:25:42;11.10;99.90
25568;DHT22;13455;51.480;7.594;2024-02-21T16:28:09;10.90;99.90
25568;DHT22;13455;51.480;7.594;2024-02-21T16:30:36;10.90;99.90
25568;DHT22;13455;51.480;7.594;2024-02-21T16:33:02;10.80;99.90
25568;DHT22;13455;51.480;7.594;2024-02-21T16:35:28;10.80;99.90
25568;DHT22;13455;51.480;7.594;2024-02-21T16:37:57;10.80;99.90
25568;DHT22;13455;51.480;7.594;2024-02-21T16:40:22;10.70;99.90
25568;DHT22;13455;51.480;7.594;2024-02-21T16:42:48;10.80;99.90
25568;DHT22;13455;51.480;7.594;2024-02-21T16:45:17;10.70;99.90
25568;DHT22;13455;51.480;7.594;2024-02-21T16:47:44;10.70;99.90
25568;DHT22;13455;51.480;7.594;2024-02-21T16:50:10;10.60;99.90
25568;DHT22;13455;51.480;7.594;2024-02-21T16:52:35;10.60;99.90
25568;DHT22;13455;51.480;7.594;2024-02-21T16:55:01;10.70;99.90
25568;DHT22;13455;51.480;7.594;2024-02-21T16:57:26;10.60;99.90
25568;DHT22;13455;51.480;7.594;2024-02-21T16:59:52;10.70;99.90
25568;DHT22;13455;51.480;7.594;2024-02-21T17:02:18;10.60;99.90
25568;DHT22;13455;51.480;7.594;2024-02-21T17:04:45;10.60;99.90
25568;DHT22;13455;51.480;7.594;2024-02-21T17:07:12;10.60;99.90
25568;DHT22;13455;51.480;7.594;2024-02-21T18:00:48;10.30;99.90
25568;DHT22;13455;51.480;7.594;2024-02-21T18:03:14;10.30;99.90
25568;DHT22;13455;51.480;7.594;2024-02-21T18:05:44;10.20;99.90
25568;DHT22;13455;51.480;7.594;2024-02-21T18:10:37;10.10;99.90
25568;DHT22;13455;51.480;7.594;2024-02-21T18:13:06;10.50;99.90
25568;DHT22;13455;51.480;7.594;2024-02-21T18:15:33;10.00;99.90
25568;DHT22;13455;51.480;7.594;2024-02-21T18:17:58;10.00;99.90
25568;DHT22;13455;51.480;7.594;2024-02-21T18:20:24;10.00;99.90
25568;DHT22;13455;51.480;7.594;2024-02-21T18:22:50;9.90;99.90
25568;DHT22;13455;51.480;7.594;2024-02-21T18:25:16;9.90;99.90
25568;DHT22;13455;51.480;7.594;2024-02-21T18:30:09;9.90;99.90
25568;DHT22;13455;51.480;7.594;2024-02-21T18:32:35;9.80;99.90
25568;DHT22;13455;51.480;7.594;2024-02-21T18:35:00;9.80;99.90
25568;DHT22;13455;51.480;7.594;2024-02-21T18:37:26;9.90;99.90
25568;DHT22;13455;51.480;7.594;2024-02-21T18:39:52;9.60;99.90
25568;DHT22;13455;51.480;7.594;2024-02-21T18:42:17;9.60;99.90
25568;DHT22;13455;51.480;7.594;2024-02-21T18:47:11;9.60;99.90
25568;DHT22;13455;51.480;7.594;2024-02-21T18:52:03;9.40;99.90
25568;DHT22;13455;51.480;7.594;2024-02-21T18:54:29;9.30;99.90
25568;DHT22;13455;51.480;7.594;2024-02-21T18:56:55;9.30;99.90
25568;DHT22;13455;51.480;7.594;2024-02-21T18:59:20;9.30;99.90
25568;DHT22;13455;51.480;7.594;2024-02-21T19:06:38;9.20;99.90
25568;DHT22;13455;51.480;7.594;2024-02-21T19:09:04;9.20;99.90
25568;DHT22;13455;51.480;7.594;2024-02-21T19:11:33;9.10;99.90
25568;DHT22;13455;51.480;7.594;2024-02-21T19:13:59;9.20;99.90
25568;DHT22;13455;51.480;7.594;2024-02-21T19:16:25;9.10;99.90
25568;DHT22;13455;51.480;7.594;2024-02-21T19:18:51;9.10;99.90
25568;DHT22;13455;51.480;7.594;2024-02-21T19:21:18;9.00;99.90
25568;DHT22;13455;51.480;7.594;2024-02-21T19:23:44;9.00;99.90
25568;DHT22;13455;51.480;7.594;2024-02-21T19:26:10;9.00;99.90
25568;DHT22;13455;51.480;7.594;2024-02-21T19:28:35;9.00;99.90
25568;DHT22;13455;51.480;7.594;2024-02-21T19:31:02;9.30;99.90
25568;DHT22;13455;51.480;7.594;2024-02-21T19:33:30;8.90;99.90
25568;DHT22;13455;51.480;7.594;2024-02-21T19:35:56;8.90;99.90
25568;DHT22;13455;51.480;7.594;2024-02-21T19:38:22;8.90;99.90
25568;DHT22;13455;51.480;7.594;2024-02-21T19:40:49;8.90;99.90
25568;DHT22;13455;51.480;7.594;2024-02-21T19:43:16;8.80;99.90
25568;DHT22;13455;51.480;7.594;2024-02-21T19:45:41;8.70;99.90
25568;DHT22;13455;51.480;7.594;2024-02-21T19:48:08;8.80;99.90
25568;DHT22;13455;51.480;7.594;2024-02-21T19:50:33;9.30;99.90
25568;DHT22;13455;51.480;7.594;2024-02-21T19:52:59;9.00;99.90
25568;DHT22;13455;51.480;7.594;2024-02-21T19:55:27;8.80;99.90